Time;durP1;ratioP1;P1;durP2;ratioP2;P2;SDS_P1;SDS_P2;PMS_P1;PMS_P2;Temp;Humidity;BMP_temperature;BMP_pressure;BME280_temperature;BME280_humidity;BME280_pressure;Samples;Min_cycle;Max_cycle;Signal;HPM_P1;HPM_P2
2021/03/10 00:02:56;;;;;;;7.67;3.53;;;;;;;-12.74;49.68;99479.34;10668333;27;20438;-50
2021/03/10 00:07:58;;;;;;;11.77;4.70;;;;;;;-12.79;49.49;99481.84;10648334;27;20482;-50
2021/03/10 00:12:59;;;;;;;14.20;4.40;;;;;;;-12.80;48.97;99490.28;10639391;27;20483;-50
2021/03/10 00:18:02;;;;;;;10.27;4.80;;;;;;;-12.94;49.43;99491.03;10640023;27;20050;-55
2021/03/10 00:23:03;;;;;;;10.02;3.15;;;;;;;-13.01;49.52;99490.16;10665443;27;20055;-50
2021/03/10 00:28:05;;;;;;;3.77;1.47;;;;;;;-13.11;49.35;99478.31;10663490;27;20051;-47
2021/03/10 00:33:08;;;;;;;12.53;4.00;;;;;;;-13.18;49.71;99482.44;10665646;27;20512;-50
2021/03/10 00:38:09;;;;;;;4.70;1.70;;;;;;;-13.25;49.14;99485.81;10669053;27;20050;-50
2021/03/10 00:43:11;;;;;;;9.27;2.27;;;;;;;-13.29;49.09;99479.06;10662356;27;20500;-48
2021/03/10 00:48:13;;;;;;;11.87;3.47;;;;;;;-13.32;49.13;99484.09;10638510;27;20046;-50
2021/03/10 00:53:15;;;;;;;1.70;1.40;;;;;;;-13.24;49.14;99487.47;10629218;27;20499;-50
2021/03/10 00:58:17;;;;;;;12.30;2.80;;;;;;;-13.23;49.39;99491.72;10671776;27;20406;-62
2021/03/10 01:03:19;;;;;;;7.93;3.33;;;;;;;-13.20;49.32;99489.19;10677016;27;20046;-48
2021/03/10 01:08:21;;;;;;;6.18;2.97;;;;;;;-13.21;49.15;99495.06;10672724;27;20456;-50
2021/03/10 01:13:22;;;;;;;6.63;2.77;;;;;;;-13.26;48.90;99494.25;10674043;27;20065;-48
2021/03/10 01:18:25;;;;;;;9.50;3.13;;;;;;;-13.33;49.02;99503.47;10672931;27;20042;-47
2021/03/10 01:23:27;;;;;;;8.23;3.22;;;;;;;-13.34;48.90;99511.03;10672950;27;20055;-50
2021/03/10 01:28:28;;;;;;;6.67;3.10;;;;;;;-13.38;48.70;99519.44;10673019;27;20046;-48
2021/03/10 01:33:31;;;;;;;7.87;2.80;;;;;;;-13.33;48.80;99525.38;10673557;27;20759;-48
2021/03/10 01:38:33;;;;;;;9.98;3.33;;;;;;;-13.24;48.86;99531.34;10673278;27;20141;-47
2021/03/10 01:43:34;;;;;;;10.73;3.27;;;;;;;-13.21;48.56;99540.59;10673905;27;20043;-48
2021/03/10 01:48:37;;;;;;;9.73;3.67;;;;;;;-13.20;48.29;99539.78;10673114;27;20061;-47
2021/03/10 01:53:39;;;;;;;9.67;4.07;;;;;;;-13.19;48.58;99555.81;10671371;27;20493;-47
2021/03/10 01:58:41;;;;;;;11.33;3.10;;;;;;;-13.14;48.28;99544.91;10672255;27;20042;-49
2021/03/10 02:03:44;;;;;;;8.00;3.30;;;;;;;-13.08;47.90;99550.00;10675092;27;20410;-49
2021/03/10 02:08:53;;;;;;;6.43;2.53;;;;;;;-13.15;48.14;99555.84;10673598;27;20497;-50
2021/03/10 02:14:07;;;;;;;8.33;3.03;;;;;;;-13.25;48.11;99560.00;10654722;27;20442;-47
2021/03/10 02:19:26;;;;;;;7.97;3.27;;;;;;;-13.22;48.20;99561.69;10670829;27;20471;-51
2021/03/10 02:24:38;;;;;;;10.00;3.20;;;;;;;-13.20;47.48;99562.56;10650335;27;20429;-47
2021/03/10 02:29:42;;;;;;;8.67;3.53;;;;;;;-13.20;47.44;99575.22;10674232;27;20043;-52
2021/03/10 02:34:44;;;;;;;13.13;3.53;;;;;;;-13.20;47.75;99585.31;10676569;27;20046;-48
2021/03/10 02:39:45;;;;;;;6.53;2.17;;;;;;;-13.24;47.42;99583.56;10671562;27;20050;-50
2021/03/10 02:44:48;;;;;;;9.53;3.63;;;;;;;-13.31;47.47;99592.00;10669821;27;20050;-47
2021/03/10 02:49:51;;;;;;;11.55;3.15;;;;;;;-13.30;47.54;99598.72;10668946;27;20375;-50
2021/03/10 02:54:53;;;;;;;7.75;3.42;;;;;;;-13.31;47.52;99592.00;10656483;27;20039;-50
2021/03/10 02:59:57;;;;;;;5.75;2.60;;;;;;;-13.30;47.07;99597.09;10621538;27;20035;-50
2021/03/10 03:04:58;;;;;;;8.07;3.03;;;;;;;-13.40;47.52;99602.03;10627322;27;20047;-51
2021/03/10 03:10:01;;;;;;;13.27;4.20;;;;;;;-13.48;48.09;99600.28;10625845;27;20046;-47
2021/03/10 03:15:05;;;;;;;14.23;3.77;;;;;;;-13.49;47.84;99605.31;10625790;27;20065;-49
2021/03/10 03:20:08;;;;;;;12.77;4.07;;;;;;;-13.52;47.49;99613.69;10632256;27;20351;-54
2021/03/10 03:25:12;;;;;;;;;;;;;;;-13.53;47.81;99622.13;10668567;27;20479;-47
2021/03/10 03:30:16;;;;;;;7.78;1.85;;;;;;;-13.56;47.46;99619.56;10621066;27;19930;-48
2021/03/10 03:35:19;;;;;;;20.10;4.07;;;;;;;-13.74;48.19;99622.75;10668612;27;20055;-47
2021/03/10 03:40:23;;;;;;;10.95;4.20;;;;;;;-13.75;47.83;99622.75;10586647;27;20524;-50
2021/03/10 03:45:26;;;;;;;10.60;4.33;;;;;;;-13.77;48.10;99635.34;10582733;28;20051;-47
2021/03/10 03:50:28;;;;;;;13.70;4.18;;;;;;;-13.89;48.04;99637.72;10582544;28;20048;-51
2021/03/10 03:55:29;;;;;;;13.40;3.30;;;;;;;-13.92;48.28;99638.53;10615748;27;20042;-50
2021/03/10 04:00:32;;;;;;;13.20;4.20;;;;;;;-13.96;48.66;99651.97;10588743;28;20044;-51
2021/03/10 04:05:34;;;;;;;9.93;3.40;;;;;;;-13.87;48.56;99660.50;10647579;27;20046;-50
2021/03/10 04:10:38;;;;;;;11.90;3.17;;;;;;;-13.78;48.73;99666.50;10592194;27;20066;-51
2021/03/10 04:15:41;;;;;;;15.43;4.37;;;;;;;-13.32;50.56;99658.59;10583221;28;20063;-54
2021/03/10 04:20:43;;;;;;;14.18;4.43;;;;;;;-12.42;52.24;99674.50;10639232;27;20544;-48
2021/03/10 04:25:45;;;;;;;9.73;3.10;;;;;;;-11.27;53.74;99672.44;10663801;27;20471;-50
2021/03/10 04:30:47;;;;;;;12.93;4.20;;;;;;;-10.04;54.79;99675.81;10674456;27;20395;-48
2021/03/10 04:35:49;;;;;;;12.87;3.77;;;;;;;-8.78;55.60;99676.91;10674362;27;20075;-49
2021/03/10 04:40:50;;;;;;;14.00;4.75;;;;;;;-7.47;56.47;99687.50;10673919;27;20287;-48
2021/03/10 04:45:53;;;;;;;13.73;4.40;;;;;;;-6.43;56.81;99680.91;10674968;27;20046;-51
2021/03/10 04:50:55;;;;;;;14.35;4.40;;;;;;;-5.31;56.44;99691.56;10674671;27;20039;-51
2021/03/10 04:55:56;;;;;;;13.35;4.68;;;;;;;-4.39;56.80;99686.94;10676238;27;20509;-47
2021/03/10 05:00:59;;;;;;;10.90;5.05;;;;;;;-3.11;56.85;99697.19;10674679;27;20130;-51
2021/03/10 05:06:01;;;;;;;19.48;6.90;;;;;;;-1.95;56.36;99693.50;10656781;27;20046;-50
2021/03/10 05:11:03;;;;;;;8.63;4.13;;;;;;;-0.86;55.09;99692.13;10656149;27;20035;-52
2021/03/10 05:16:14;;;;;;;13.35;5.32;;;;;;;0.63;54.52;99699.72;10677527;27;20437;-49
2021/03/10 05:21:16;;;;;;;12.38;5.18;;;;;;;1.14;50.40;99698.28;10672875;27;20090;-52
2021/03/10 05:26:17;;;;;;;12.43;5.18;;;;;;;1.66;48.90;99702.69;10649817;27;20047;-52
2021/03/10 05:31:20;;;;;;;13.23;5.43;;;;;;;1.52;45.40;99712.91;10654252;27;20479;-50
2021/03/10 05:36:22;;;;;;;13.52;5.05;;;;;;;2.03;48.85;99716.44;10653460;27;20054;-50
2021/03/10 05:41:24;;;;;;;12.68;5.25;;;;;;;3.56;47.25;99713.53;10613532;27;20050;-50
2021/03/10 05:46:27;;;;;;;11.27;4.70;;;;;;;4.22;43.23;99732.31;10614368;27;20054;-49
2021/03/10 05:51:28;;;;;;;9.80;4.25;;;;;;;3.99;44.35;99747.50;10634037;27;20050;-52
2021/03/10 05:56:31;;;;;;;11.05;4.88;;;;;;;4.44;42.35;99739.72;10678948;27;20053;-54
2021/03/10 06:01:33;;;;;;;11.30;5.57;;;;;;;4.91;41.18;99742.06;10678164;27;20483;-50
2021/03/10 06:06:38;;;;;;;8.68;4.22;;;;;;;5.75;42.07;99746.34;10677434;27;20056;-52
2021/03/10 06:11:39;;;;;;;10.98;4.60;;;;;;;6.54;37.23;99758.56;10675973;27;20057;-52
2021/03/10 06:16:42;;;;;;;11.40;4.15;;;;;;;5.76;37.79;99771.53;10656001;27;20046;-52
2021/03/10 06:21:50;;;;;;;8.70;3.90;;;;;;;5.00;34.96;99764.94;10672364;27;20054;-54
2021/03/10 06:26:54;;;;;;;12.10;4.00;;;;;;;4.70;34.89;99778.03;10673232;27;20142;-50
2021/03/10 06:32:04;;;;;;;7.70;3.75;;;;;;;4.72;33.80;99773.59;10671785;27;20539;-53
2021/03/10 06:37:06;;;;;;;8.20;3.15;;;;;;;5.69;36.10;99775.44;10671616;27;20042;-53
2021/03/10 06:42:13;;;;;;;10.38;4.50;;;;;;;6.29;33.38;99766.38;10653155;27;20102;-50
2021/03/10 06:47:16;;;;;;;9.32;4.00;;;;;;;7.49;36.81;99803.44;10671822;27;20463;-50
2021/03/10 06:52:17;;;;;;;12.13;4.35;;;;;;;9.34;34.48;99807.97;10671345;27;20069;-51
2021/03/10 06:57:19;;;;;;;7.93;4.60;;;;;;;10.67;35.02;99806.84;10671476;27;20581;-53
2021/03/10 07:02:23;;;;;;;12.18;4.82;;;;;;;12.33;32.44;99810.84;10670524;27;20043;-52
2021/03/10 07:07:26;;;;;;;12.65;5.30;;;;;;;13.34;30.91;99812.03;10668563;27;20046;-53
2021/03/10 07:12:29;;;;;;;9.93;5.27;;;;;;;13.25;27.22;99818.19;10672129;27;20042;-53
2021/03/10 07:17:32;;;;;;;9.03;4.80;;;;;;;13.55;30.35;99815.25;10669943;27;20046;-53
2021/03/10 07:22:37;;;;;;;10.10;5.97;;;;;;;15.49;29.87;99815.34;10668955;27;20090;-52
2021/03/10 07:27:44;;;;;;;16.00;5.35;;;;;;;16.80;26.48;99812.91;10651612;27;20051;-51
2021/03/10 07:32:46;;;;;;;11.85;4.90;;;;;;;17.22;26.47;99807.34;10668615;27;20095;-51
2021/03/10 07:37:54;;;;;;;12.20;4.93;;;;;;;17.34;23.50;99813.09;10669368;27;20051;-51
2021/03/10 07:42:57;;;;;;;9.45;5.22;;;;;;;18.43;23.87;99806.00;10668394;27;20141;-51
2021/03/10 07:47:59;;;;;;;10.38;5.10;;;;;;;18.23;22.70;99815.50;10652813;27;20046;-53
2021/03/10 07:53:01;;;;;;;13.27;5.67;;;;;;;17.98;22.50;99820.13;10669093;27;20046;-53
2021/03/10 07:58:03;;;;;;;12.38;5.60;;;;;;;17.99;18.30;99819.13;10669073;27;20046;-52
2021/03/10 08:03:06;;;;;;;13.60;6.72;;;;;;;17.19;18.57;99823.59;10669675;27;20103;-53
2021/03/10 08:08:09;;;;;;;7.75;4.22;;;;;;;18.33;18.47;99822.22;10689878;27;20390;-51
2021/03/10 08:13:15;;;;;;;8.18;4.30;;;;;;;19.26;17.48;99831.69;10671676;27;20466;-53
2021/03/10 08:18:20;;;;;;;9.00;3.90;;;;;;;18.67;16.90;99831.59;10651123;27;20085;-51
2021/03/10 08:23:28;;;;;;;9.00;3.30;;;;;;;18.22;16.09;99825.28;10669195;27;20059;-52
2021/03/10 08:28:34;;;;;;;10.40;4.53;;;;;;;18.96;15.17;99827.34;10668104;27;20039;-51
2021/03/10 08:33:46;;;;;;;11.60;4.70;;;;;;;19.61;15.93;99829.31;10667450;27;20050;-52
2021/03/10 08:38:48;;;;;;;10.70;4.53;;;;;;;21.02;15.29;99833.16;10668068;27;20106;-54
2021/03/10 08:44:00;;;;;;;10.82;4.28;;;;;;;20.69;14.38;99833.75;10668433;27;20050;-52
2021/03/10 08:49:03;;;;;;;8.18;4.10;;;;;;;20.98;13.52;99842.59;10649580;27;20479;-58
2021/03/10 08:54:06;;;;;;;10.80;4.37;;;;;;;20.79;13.77;99841.44;10667546;27;20054;-54
2021/03/10 08:59:07;;;;;;;10.38;4.97;;;;;;;20.87;13.21;99840.44;10683036;27;20772;-52
2021/03/10 09:04:10;;;;;;;9.93;4.95;;;;;;;22.03;12.65;99848.69;10656976;27;20043;-52
2021/03/10 09:09:12;;;;;;;7.65;4.20;;;;;;;22.11;11.57;99855.72;10652707;27;20057;-52
2021/03/10 09:14:14;;;;;;;11.15;4.75;;;;;;;21.18;12.56;99844.56;10654294;27;20046;-53
2021/03/10 09:19:30;;;;;;;8.88;4.63;;;;;;;21.96;11.64;99858.56;10656359;27;20051;-53
2021/03/10 09:24:34;;;;;;;13.57;5.75;;;;;;;20.14;10.97;99863.78;10656537;27;20086;-53
2021/03/10 09:29:41;;;;;;;14.40;5.10;;;;;;;19.32;11.91;99857.59;10656621;27;20046;-53
2021/03/10 09:34:50;;;;;;;16.55;6.25;;;;;;;21.33;11.83;99848.75;10679129;27;20035;-54
2021/03/10 09:39:53;;;;;;;9.88;4.65;;;;;;;21.01;11.46;99854.75;10675728;27;20364;-53
2021/03/10 09:45:03;;;;;;;12.70;5.13;;;;;;;20.74;12.41;99848.34;10654953;27;20130;-53
2021/03/10 09:50:26;;;;;;;10.10;4.88;;;;;;;20.86;11.66;99842.28;10654557;27;20053;-51
2021/03/10 09:55:28;;;;;;;11.25;4.65;;;;;;;20.64;10.77;99848.69;10682525;27;20063;-52
2021/03/10 10:00:37;;;;;;;11.38;5.47;;;;;;;19.22;11.08;99849.06;10690896;27;20123;-54
2021/03/10 10:05:41;;;;;;;12.95;5.65;;;;;;;14.83;12.71;99861.78;10662517;27;20111;-53
2021/03/10 10:10:43;;;;;;;;;;;;;;;9.61;15.71;99867.13;10655095;27;20042;-53
2021/03/10 10:15:46;;;;;;;14.15;4.80;;;;;;;6.11;16.84;99880.66;10655706;27;19958;-49
2021/03/10 10:20:53;;;;;;;9.68;4.80;;;;;;;3.96;17.43;99872.53;10655008;27;20059;-50
2021/03/10 10:26:01;;;;;;;13.48;4.90;;;;;;;1.78;17.74;99872.34;10653924;27;20490;-50
2021/03/10 10:31:02;;;;;;;9.98;3.95;;;;;;;0.19;17.91;99869.72;10656613;27;20466;-49
2021/03/10 10:36:09;;;;;;;10.77;4.30;;;;;;;-1.24;18.67;99881.84;10654418;27;20046;-51
2021/03/10 10:41:15;;;;;;;10.40;4.20;;;;;;;-2.06;19.70;99881.06;10654255;27;20058;-49
2021/03/10 10:46:17;;;;;;;8.93;3.72;;;;;;;-2.56;19.60;99888.53;10657438;27;20061;-49
2021/03/10 10:51:24;;;;;;;9.57;5.20;;;;;;;-3.08;20.16;99877.09;10653445;27;20051;-52
2021/03/10 10:56:38;;;;;;;10.97;4.07;;;;;;;-3.39;20.28;99877.91;10654127;27;20138;-51
2021/03/10 11:01:51;;;;;;;7.38;3.20;;;;;;;-3.58;20.67;99886.97;10653565;27;20483;-55
2021/03/10 11:06:54;;;;;;;9.27;3.15;;;;;;;-3.83;20.80;99881.56;10671577;27;20051;-49
2021/03/10 11:11:56;;;;;;;6.00;2.57;;;;;;;-4.10;21.23;99890.75;10672321;27;20058;-51
2021/03/10 11:17:00;;;;;;;7.25;3.38;;;;;;;-4.39;20.93;99902.50;10655014;27;20057;-51
2021/03/10 11:22:21;;;;;;;9.82;3.13;;;;;;;-4.97;21.34;99894.22;10652515;27;20078;-51
2021/03/10 11:27:23;;;;;;;8.30;1.83;;;;;;;-5.09;21.71;99895.31;10651954;27;20047;-49
2021/03/10 11:32:28;;;;;;;5.43;2.13;;;;;;;-5.17;21.77;99902.31;10652423;27;20050;-51
2021/03/10 11:37:30;;;;;;;6.28;2.50;;;;;;;-5.38;21.83;99907.81;10651275;27;20051;-51
2021/03/10 11:42:32;;;;;;;4.63;2.20;;;;;;;-5.53;22.01;99902.94;10651119;27;20046;-49
2021/03/10 11:47:34;;;;;;;10.02;3.10;;;;;;;-5.68;22.34;99915.09;10672455;27;20050;-56
2021/03/10 11:52:36;;;;;;;10.20;3.45;;;;;;;-5.57;22.12;99913.22;10674567;27;20051;-50
2021/03/10 11:57:38;;;;;;;6.03;2.88;;;;;;;-5.81;22.13;99918.72;10651490;27;20050;-49
2021/03/10 12:02:43;;;;;;;5.38;2.35;;;;;;;-5.89;22.58;99923.13;10651226;27;20415;-49
2021/03/10 12:07:53;;;;;;;8.50;3.25;;;;;;;-5.91;22.68;99922.28;10651450;27;20039;-51
2021/03/10 12:12:55;;;;;;;7.45;2.72;;;;;;;-6.05;22.81;99925.09;10668485;27;20379;-48
2021/03/10 12:17:56;;;;;;;8.73;2.72;;;;;;;-6.28;22.96;99922.81;10668413;27;20394;-49
2021/03/10 12:22:59;;;;;;;9.25;3.03;;;;;;;-6.22;23.03;99927.00;10668741;27;20085;-53
2021/03/10 12:28:00;;;;;;;8.40;2.80;;;;;;;-6.22;23.49;99912.50;10668558;27;20383;-48
2021/03/10 12:33:02;;;;;;;6.07;1.88;;;;;;;-6.17;23.02;99908.19;10668030;27;20065;-50
2021/03/10 12:38:05;;;;;;;7.35;2.25;;;;;;;-6.37;23.26;99930.63;10668100;27;20058;-51
2021/03/10 12:43:06;;;;;;;4.50;1.85;;;;;;;-6.46;23.02;99929.03;10668225;27;20043;-53
2021/03/10 12:48:09;;;;;;;8.95;2.08;;;;;;;-6.68;23.35;99928.47;10671379;27;20129;-49
2021/03/10 12:53:11;;;;;;;5.57;2.10;;;;;;;-6.56;23.44;99925.75;10676344;27;20042;-53
2021/03/10 12:58:13;;;;;;;10.10;2.22;;;;;;;-6.53;23.22;99933.34;10675889;27;20435;-51
2021/03/10 13:03:15;;;;;;;5.90;1.70;;;;;;;-6.82;23.05;99935.41;10675607;27;20422;-52
2021/03/10 13:08:17;;;;;;;9.68;2.00;;;;;;;-6.80;23.57;99944.78;10675562;27;20068;-48
2021/03/10 13:13:19;;;;;;;8.57;2.20;;;;;;;-6.65;23.58;99938.66;10674676;27;20107;-49
2021/03/10 13:18:20;;;;;;;6.95;2.15;;;;;;;-6.75;23.13;99943.00;10675717;27;20038;-50
2021/03/10 13:23:23;;;;;;;5.60;1.40;;;;;;;-6.85;23.68;99936.28;10674468;27;20103;-51
2021/03/10 13:28:25;;;;;;;3.60;1.30;;;;;;;-6.78;23.45;99942.19;10675085;27;20046;-51
2021/03/10 13:33:27;;;;;;;3.50;1.30;;;;;;;-6.91;23.34;99938.91;10674497;27;20050;-51
2021/03/10 13:38:30;;;;;;;5.25;1.70;;;;;;;-6.90;23.31;99942.31;10656049;27;20046;-52
2021/03/10 13:43:32;;;;;;;6.00;1.47;;;;;;;-7.09;23.49;99946.75;10661417;27;20047;-51
2021/03/10 13:48:33;;;;;;;5.93;1.52;;;;;;;-7.22;23.54;99946.03;10588016;28;20373;-51
2021/03/10 13:53:36;;;;;;;5.40;1.42;;;;;;;-7.24;23.46;99947.75;10591986;28;20047;-50
2021/03/10 13:58:37;;;;;;;9.75;1.90;;;;;;;-7.33;23.56;99932.50;10568892;28;20108;-51
2021/03/10 14:03:39;;;;;;;5.43;1.65;;;;;;;-7.27;23.66;99952.88;10588173;28;20043;-60
2021/03/10 14:08:41;;;;;;;4.68;1.30;;;;;;;-7.28;23.80;99948.66;10588121;28;20066;-53
2021/03/10 14:13:43;;;;;;;4.30;1.50;;;;;;;-7.49;23.61;99955.63;10586879;28;20040;-48
2021/03/10 14:18:44;;;;;;;5.80;1.58;;;;;;;-7.64;23.74;99942.97;10587433;28;20051;-51
2021/03/10 14:23:47;;;;;;;4.07;1.17;;;;;;;-7.68;23.90;99942.16;10587654;27;20059;-50
2021/03/10 14:28:49;;;;;;;6.77;1.63;;;;;;;-7.66;23.80;99950.66;10569370;28;20446;-49
2021/03/10 14:33:50;;;;;;;6.78;1.75;;;;;;;-7.57;23.86;99952.28;10586557;28;20075;-58
2021/03/10 14:38:53;;;;;;;7.93;2.30;;;;;;;-7.49;23.70;99955.63;10586901;27;20475;-51
2021/03/10 14:43:54;;;;;;;5.87;1.77;;;;;;;-7.48;23.88;99944.56;10587260;28;20055;-49
2021/03/10 14:48:56;;;;;;;6.53;1.98;;;;;;;-7.60;23.92;99957.41;10586841;27;20047;-52
2021/03/10 14:53:59;;;;;;;6.93;1.90;;;;;;;-7.70;24.00;99968.53;10586428;28;20116;-52
2021/03/10 14:59:00;;;;;;;13.80;3.30;;;;;;;-7.82;23.84;99966.91;10585451;28;20050;-51
2021/03/10 15:04:02;;;;;;;6.22;2.13;;;;;;;-8.05;24.19;99967.06;10584977;27;20105;-51
2021/03/10 15:09:05;;;;;;;9.07;1.95;;;;;;;-8.08;24.26;99972.16;10584342;28;20134;-50
2021/03/10 15:14:07;;;;;;;5.30;2.20;;;;;;;-8.12;24.26;99973.06;10584962;28;20047;-51
2021/03/10 15:19:09;;;;;;;4.00;1.40;;;;;;;-8.33;24.07;99976.53;10566585;28;20043;-50
2021/03/10 15:24:13;;;;;;;3.53;1.25;;;;;;;-8.43;24.17;99980.88;10583922;28;20067;-48
2021/03/10 15:29:15;;;;;;;6.63;1.50;;;;;;;-8.48;24.21;99984.28;10584130;28;20039;-50
2021/03/10 15:34:17;;;;;;;6.47;2.08;;;;;;;-8.56;24.57;99994.50;10583742;28;20055;-48
2021/03/10 15:39:19;;;;;;;7.15;1.45;;;;;;;-8.63;24.54;99998.75;10587177;28;20048;-53
2021/03/10 15:44:21;;;;;;;2.40;1.00;;;;;;;-8.73;24.62;99991.16;10566211;27;20046;-48
2021/03/10 15:49:23;;;;;;;7.68;2.20;;;;;;;-8.73;24.59;99996.25;10564833;28;20043;-50
2021/03/10 15:54:25;;;;;;;9.77;2.13;;;;;;;-8.75;24.41;100008.97;10599485;27;20475;-48
2021/03/10 15:59:27;;;;;;;7.33;1.80;;;;;;;-8.83;24.42;100009.03;10626461;27;20059;-50
2021/03/10 16:04:29;;;;;;;4.47;1.60;;;;;;;-8.93;24.62;100009.84;10625015;27;20047;-52
2021/03/10 16:09:32;;;;;;;8.17;2.30;;;;;;;-8.91;24.97;100013.25;10625042;28;20055;-50
2021/03/10 16:14:35;;;;;;;5.22;1.55;;;;;;;-8.96;25.01;100029.41;10624506;28;20054;-50
2021/03/10 16:19:37;;;;;;;3.40;1.33;;;;;;;-9.12;24.99;100028.56;10625135;28;20077;-52
2021/03/10 16:24:39;;;;;;;5.80;1.50;;;;;;;-9.20;25.36;100035.38;10631480;27;20065;-48
2021/03/10 16:29:41;;;;;;;11.80;3.45;;;;;;;-9.15;25.40;100034.50;10615666;27;20062;-49
2021/03/10 16:34:43;;;;;;;4.80;1.73;;;;;;;-9.12;25.24;100033.66;10633473;27;20183;-48
2021/03/10 16:39:46;;;;;;;5.10;2.03;;;;;;;-9.15;25.19;100028.56;10633464;27;20411;-48
2021/03/10 16:44:47;;;;;;;0.85;0.47;;;;;;;-9.18;25.21;100024.31;10615548;27;20065;-50
2021/03/10 16:49:50;;;;;;;5.13;1.63;;;;;;;-9.24;25.30;100033.66;10602019;27;20058;-49
2021/03/10 16:54:53;;;;;;;5.28;1.95;;;;;;;-9.21;25.68;100031.09;10633816;27;20039;-50
2021/03/10 16:59:54;;;;;;;7.73;1.87;;;;;;;-9.20;25.28;100040.47;10632704;27;20051;-52
2021/03/10 17:04:56;;;;;;;5.43;1.53;;;;;;;-9.20;25.77;100040.47;10632589;27;20300;-50
2021/03/10 17:09:58;;;;;;;8.13;1.90;;;;;;;-9.27;25.40;100034.50;10614608;27;20069;-50
2021/03/10 17:15:00;;;;;;;7.63;1.23;;;;;;;-9.36;25.79;100043.00;10632136;27;20054;-48
2021/03/10 17:20:03;;;;;;;4.50;1.27;;;;;;;-9.44;25.96;100042.13;10631644;27;20084;-48
2021/03/10 17:25:07;;;;;;;3.20;1.20;;;;;;;-9.43;26.03;100048.06;10633208;27;20098;-47
2021/03/10 17:30:10;;;;;;;6.80;1.93;;;;;;;-9.39;25.72;100045.53;10628411;27;20062;-48
2021/03/10 17:35:13;;;;;;;7.57;2.10;;;;;;;-9.43;26.30;100051.47;10630591;27;20043;-50
2021/03/10 17:40:16;;;;;;;3.25;1.27;;;;;;;-9.49;26.23;100048.91;10613562;27;20475;-48
2021/03/10 17:45:18;;;;;;;6.85;1.88;;;;;;;-9.52;26.32;100061.63;10634241;27;20047;-49
2021/03/10 17:50:20;;;;;;;3.73;1.13;;;;;;;-9.57;26.32;100056.53;10631311;27;20110;-48
2021/03/10 17:55:23;;;;;;;4.43;1.15;;;;;;;-9.56;26.56;100063.31;10630102;27;20610;-50
2021/03/10 18:00:26;;;;;;;3.63;1.37;;;;;;;-9.48;26.40;100070.09;10631181;27;20084;-48
2021/03/10 18:05:29;;;;;;;3.42;1.42;;;;;;;-9.53;26.19;100075.22;10631873;27;20381;-49
2021/03/10 18:10:32;;;;;;;3.13;1.13;;;;;;;-9.60;26.65;100073.50;10629521;27;20055;-48
2021/03/10 18:15:33;;;;;;;4.22;1.75;;;;;;;-9.65;26.62;100082.81;10626620;27;20593;-50
2021/03/10 18:20:36;;;;;;;4.27;1.30;;;;;;;-9.70;26.18;100079.41;10629032;27;20063;-48
2021/03/10 18:25:39;;;;;;;3.53;1.33;;;;;;;-9.65;26.47;100075.19;10629950;27;20043;-50
2021/03/10 18:30:41;;;;;;;3.95;1.30;;;;;;;-9.66;26.47;100076.88;10627997;27;20038;-49
2021/03/10 18:35:43;;;;;;;5.60;1.13;;;;;;;-9.68;26.53;100075.16;10628553;27;20062;-48
2021/03/10 18:40:45;;;;;;;4.70;1.40;;;;;;;-9.79;26.83;100076.00;10628967;27;20043;-48
2021/03/10 18:45:47;;;;;;;3.10;1.23;;;;;;;-9.81;26.98;100077.69;10627171;27;20146;-49
2021/03/10 18:50:49;;;;;;;3.87;1.13;;;;;;;-9.80;27.03;100079.38;10628078;27;20368;-48
2021/03/10 18:55:51;;;;;;;3.40;1.33;;;;;;;-9.86;26.71;100081.88;10628436;27;20046;-51
2021/03/10 19:00:53;;;;;;;6.97;1.50;;;;;;;-9.94;26.95;100088.66;10627139;27;20043;-50
2021/03/10 19:05:55;;;;;;;4.50;1.33;;;;;;;-9.94;27.17;100091.22;10627233;27;20039;-48
2021/03/10 19:10:57;;;;;;;4.50;1.17;;;;;;;-10.00;27.33;100092.03;10626850;27;20047;-48
2021/03/10 19:16:01;;;;;;;3.97;1.35;;;;;;;-10.00;26.83;100096.25;10626397;27;20051;-48
2021/03/10 19:21:04;;;;;;;6.87;1.20;;;;;;;-10.04;27.14;100104.69;10625915;27;20465;-51
2021/03/10 19:26:09;;;;;;;;;;;;;;;-10.00;27.26;100111.53;10628037;27;20046;-59
2021/03/10 19:31:11;;;;;;;4.30;1.10;;;;;;;-10.07;27.45;100104.69;10629430;27;20241;-50
2021/03/10 19:36:13;;;;;;;5.77;1.57;;;;;;;-10.13;27.39;100097.03;10629100;27;20047;-48
2021/03/10 19:41:15;;;;;;;4.07;1.53;;;;;;;-10.14;27.59;100103.81;10627212;27;20096;-53
2021/03/10 19:46:17;;;;;;;4.72;1.55;;;;;;;-10.10;27.52;100102.13;10608317;27;20043;-54
2021/03/10 19:51:19;;;;;;;7.10;1.33;;;;;;;-10.11;27.66;100108.06;10626478;27;20372;-49
2021/03/10 19:56:21;;;;;;;7.33;1.70;;;;;;;-10.04;27.61;100107.25;10626983;27;20047;-60
2021/03/10 20:01:23;;;;;;;4.47;1.43;;;;;;;-10.00;27.69;100103.91;10607833;27;20043;-50
2021/03/10 20:06:26;;;;;;;7.37;1.70;;;;;;;-9.98;27.36;100115.75;10607925;28;20055;-47
2021/03/10 20:11:29;;;;;;;5.00;1.13;;;;;;;-9.96;27.38;100115.78;10625964;28;20066;-48
2021/03/10 20:16:31;;;;;;;4.13;1.17;;;;;;;-9.97;27.30;100119.16;10624997;28;20051;-48
2021/03/10 20:21:32;;;;;;;6.50;1.70;;;;;;;-10.00;27.70;100122.53;10625710;28;20483;-49
2021/03/10 20:26:35;;;;;;;4.50;1.40;;;;;;;-10.11;27.67;100123.31;10626080;28;20047;-52
2021/03/10 20:31:37;;;;;;;3.17;1.05;;;;;;;-10.14;28.08;100123.31;10624963;28;20043;-48
2021/03/10 20:36:39;;;;;;;5.00;1.50;;;;;;;-10.11;27.79;100123.31;10624998;28;20099;-50
2021/03/10 20:41:41;;;;;;;3.77;1.43;;;;;;;-10.07;27.73;100127.56;10625179;28;20100;-48
2021/03/10 20:46:43;;;;;;;7.43;2.25;;;;;;;-10.05;28.00;100124.19;10626864;28;20050;-49
2021/03/10 20:51:44;;;;;;;5.13;2.00;;;;;;;-10.02;27.13;100129.31;10628368;28;20054;-50
2021/03/10 20:56:47;;;;;;;5.40;1.40;;;;;;;-10.01;27.40;100125.06;10624436;28;20444;-50
2021/03/10 21:01:48;;;;;;;3.72;1.05;;;;;;;-10.03;27.46;100127.63;10624639;28;20129;-50
2021/03/10 21:06:50;;;;;;;4.93;1.20;;;;;;;-10.04;27.31;100130.13;10624412;27;20433;-48
2021/03/10 21:11:53;;;;;;;5.33;1.27;;;;;;;-10.05;27.58;100129.28;10631237;27;20045;-48
2021/03/10 21:16:54;;;;;;;5.15;1.30;;;;;;;-10.09;27.52;100129.28;10632504;27;20104;-50
2021/03/10 21:21:56;;;;;;;5.87;1.63;;;;;;;-10.08;27.31;100136.06;10634504;27;20055;-53
2021/03/10 21:26:59;;;;;;;4.67;1.43;;;;;;;-10.09;27.50;100134.38;10632789;27;20047;-50
2021/03/10 21:32:02;;;;;;;4.70;1.50;;;;;;;-10.11;27.28;100133.50;10631304;27;20082;-50
2021/03/10 21:37:03;;;;;;;5.25;1.77;;;;;;;-10.14;27.84;100133.47;10656838;27;20371;-51
2021/03/10 21:42:06;;;;;;;4.97;1.47;;;;;;;-10.20;27.54;100140.22;10674639;27;20058;-50
2021/03/10 21:47:08;;;;;;;5.68;1.75;;;;;;;-10.19;27.75;100143.59;10674326;27;20047;-48
2021/03/10 21:52:10;;;;;;;7.57;1.63;;;;;;;-10.16;27.95;100147.88;10673506;27;20062;-56
2021/03/10 21:57:12;;;;;;;7.10;1.90;;;;;;;-10.14;27.64;100146.19;10673526;27;20062;-50
2021/03/10 22:02:14;;;;;;;3.00;1.33;;;;;;;-10.11;27.54;100149.59;10673983;27;20099;-48
2021/03/10 22:07:15;;;;;;;10.53;1.60;;;;;;;-10.15;27.60;100150.44;10673078;27;20111;-48
2021/03/10 22:12:18;;;;;;;3.70;1.33;;;;;;;-10.18;27.88;100159.75;10672708;27;20059;-50
2021/03/10 22:17:20;;;;;;;5.35;1.52;;;;;;;-10.21;27.91;100158.88;10654242;27;20050;-50
2021/03/10 22:22:21;;;;;;;5.80;1.60;;;;;;;-10.24;28.05;100161.38;10671651;27;20100;-48
2021/03/10 22:27:24;;;;;;;8.70;1.73;;;;;;;-10.27;27.88;100174.13;10672461;27;20043;-50
2021/03/10 22:32:25;;;;;;;6.55;2.63;;;;;;;-10.31;28.45;100168.97;10672343;27;20050;-51
2021/03/10 22:37:27;;;;;;;7.63;2.23;;;;;;;-10.32;27.71;100159.66;10671904;27;20104;-51
2021/03/10 22:42:30;;;;;;;8.73;3.70;;;;;;;-10.35;28.07;100160.50;10653600;27;20042;-49
2021/03/10 22:47:31;;;;;;;6.60;2.13;;;;;;;-10.44;28.46;100160.44;10671213;27;20047;-48
2021/03/10 22:52:33;;;;;;;11.43;3.00;;;;;;;-10.58;28.30;100167.13;10670938;27;20038;-48
2021/03/10 22:57:36;;;;;;;11.83;3.90;;;;;;;-10.75;28.81;100162.72;10671699;27;20055;-48
2021/03/10 23:02:37;;;;;;;13.02;3.80;;;;;;;-10.84;29.25;100169.44;10670701;27;20475;-48
2021/03/10 23:07:39;;;;;;;16.73;3.53;;;;;;;-10.93;29.22;100165.09;10671229;27;20054;-51
2021/03/10 23:12:42;;;;;;;11.10;3.40;;;;;;;-10.98;28.79;100176.94;10670031;27;20103;-48
2021/03/10 23:17:43;;;;;;;5.25;2.13;;;;;;;-11.02;29.19;100167.56;10670288;27;20057;-50